Time,TemperatureF,DewpointF,PressureIn,WindDirection,WindDirectionDegrees,WindSpeedMPH,WindSpeedGustMPH,Humidity,HourlyPrecipIn,Conditions,Clouds,dailyrainin,SoftwareType,DateUTC
2013-10-22 00:00:00,49.4,37.3,30.01,NNW,348,0.0,0.0,63,0.00,,,0.00,Wunderground v.1.15,2013-10-22 04:00:00,
2013-10-22 00:10:00,49.4,38.1,30.01,NNW,336,0.0,0.0,65,0.00,,,0.00,Wunderground v.1.15,2013-10-22 04:10:00,
2013-10-22 00:20:00,49.4,37.3,30.01,NNW,327,0.0,2.0,63,0.00,,,0.00,Wunderground v.1.15,2013-10-22 04:20:00,
2013-10-22 00:30:00,49.0,37.7,30.01,NE,36,1.0,1.0,65,0.00,,,0.00,Wunderground v.1.15,2013-10-22 04:30:00,
2013-10-22 00:40:00,48.6,36.6,30.01,NW,322,0.0,0.0,63,0.00,,,0.00,Wunderground v.1.15,2013-10-22 04:40:00,
2013-10-22 00:50:00,47.9,35.1,30.02,NNW,346,2.0,2.0,61,0.00,,,0.00,Wunderground v.1.15,2013-10-22 04:50:00,
2013-10-22 01:00:00,47.5,35.5,30.02,NNE,12,1.0,1.0,63,0.00,,,0.00,Wunderground v.1.15,2013-10-22 05:00:00,
2013-10-22 01:09:00,47.3,35.3,30.03,NNW,327,1.0,1.0,63,0.00,,,0.00,Wunderground v.1.15,2013-10-22 05:09:00,
2013-10-22 01:20:00,46.8,34.5,30.03,North,5,3.0,4.0,62,0.00,,,0.00,Wunderground v.1.15,2013-10-22 05:20:00,
2013-10-22 01:30:00,46.3,33.6,30.04,North,355,2.0,2.0,61,0.00,,,0.00,Wunderground v.1.15,2013-10-22 05:30:00,
2013-10-22 01:40:00,46.0,33.7,30.04,NNW,345,1.0,4.0,62,0.00,,,0.00,Wunderground v.1.15,2013-10-22 05:40:00,
2013-10-22 01:49:00,45.7,35.4,30.04,North,360,1.0,1.0,67,0.00,,,0.00,Wunderground v.1.15,2013-10-22 05:49:00,
2013-10-22 02:00:00,45.5,33.6,30.04,North,350,0.0,0.0,63,0.00,,,0.00,Wunderground v.1.15,2013-10-22 06:00:00,
2013-10-22 02:10:00,45.1,33.2,30.04,North,355,0.0,0.0,63,0.00,,,0.00,Wunderground v.1.15,2013-10-22 06:10:00,
2013-10-22 02:19:00,45.1,35.5,30.04,North,355,0.0,0.0,69,0.00,,,0.00,Wunderground v.1.15,2013-10-22 06:19:00,
2013-10-22 02:30:00,44.9,35.0,30.04,North,355,0.0,0.0,68,0.00,,,0.00,Wunderground v.1.15,2013-10-22 06:30:00,
2013-10-22 02:40:00,43.4,33.5,30.04,North,355,0.0,0.0,68,0.00,,,0.00,Wunderground v.1.15,2013-10-22 06:40:00,
2013-10-22 02:50:00,42.8,34.0,30.04,North,355,0.0,0.0,71,0.00,,,0.00,Wunderground v.1.15,2013-10-22 06:50:00,
2013-10-22 03:00:00,42.1,34.1,30.04,North,355,0.0,0.0,73,0.00,,,0.00,Wunderground v.1.15,2013-10-22 07:00:00,
2013-10-22 03:10:00,41.7,35.0,30.04,North,355,0.0,0.0,77,0.00,,,0.00,Wunderground v.1.15,2013-10-22 07:10:00,
2013-10-22 03:20:00,40.8,34.5,30.04,North,355,0.0,0.0,78,0.00,,,0.00,Wunderground v.1.15,2013-10-22 07:20:00,
2013-10-22 03:30:00,40.0,34.6,30.05,North,355,0.0,0.0,81,0.00,,,0.00,Wunderground v.1.15,2013-10-22 07:30:00,
2013-10-22 03:40:00,39.4,34.7,30.05,North,355,0.0,0.0,83,0.00,,,0.00,Wunderground v.1.15,2013-10-22 07:40:00,
2013-10-22 03:50:00,38.7,34.6,30.05,North,355,0.0,0.0,85,0.00,,,0.00,Wunderground v.1.15,2013-10-22 07:50:00,
2013-10-22 04:00:00,38.1,34.0,30.04,North,355,0.0,0.0,85,0.00,,,0.00,Wunderground v.1.15,2013-10-22 08:00:00,
2013-10-22 04:10:00,38.0,34.5,30.04,North,355,0.0,0.0,87,0.00,,,0.00,Wunderground v.1.15,2013-10-22 08:10:00,
2013-10-22 04:20:00,37.7,34.5,30.04,North,355,0.0,0.0,88,0.00,,,0.00,Wunderground v.1.15,2013-10-22 08:20:00,
2013-10-22 04:30:00,37.8,34.8,30.04,North,355,0.0,0.0,89,0.00,,,0.00,Wunderground v.1.15,2013-10-22 08:30:00,
2013-10-22 04:40:00,37.3,34.4,30.04,North,355,0.0,0.0,89,0.00,,,0.00,Wunderground v.1.15,2013-10-22 08:40:00,
2013-10-22 04:50:00,37.4,34.7,30.04,North,355,0.0,0.0,90,0.00,,,0.00,Wunderground v.1.15,2013-10-22 08:50:00,
2013-10-22 05:00:00,37.1,34.2,30.04,North,355,0.0,0.0,89,0.00,,,0.00,Wunderground v.1.15,2013-10-22 09:00:00,
2013-10-22 05:10:00,36.5,33.6,30.04,North,355,0.0,0.0,89,0.00,,,0.00,Wunderground v.1.15,2013-10-22 09:10:00,
2013-10-22 05:20:00,36.2,33.8,30.04,North,355,0.0,0.0,91,0.00,,,0.00,Wunderground v.1.15,2013-10-22 09:20:00,
2013-10-22 05:29:00,36.1,33.5,30.04,North,355,0.0,0.0,90,0.00,,,0.00,Wunderground v.1.15,2013-10-22 09:29:00,
2013-10-22 05:40:00,35.9,33.3,30.04,North,355,0.0,0.0,90,0.00,,,0.00,Wunderground v.1.15,2013-10-22 09:40:00,
2013-10-22 05:50:00,35.5,33.1,30.04,North,355,0.0,0.0,91,0.00,,,0.00,Wunderground v.1.15,2013-10-22 09:50:00,
2013-10-22 06:10:00,35.1,33.0,30.04,North,355,0.0,0.0,92,0.00,,,0.00,Wunderground v.1.15,2013-10-22 10:10:00,
2013-10-22 06:20:00,34.9,32.8,30.04,North,355,0.0,0.0,92,0.00,,,0.00,Wunderground v.1.15,2013-10-22 10:20:00,
2013-10-22 06:30:00,34.6,32.5,30.05,North,355,0.0,0.0,92,0.00,,,0.00,Wunderground v.1.15,2013-10-22 10:30:00,
2013-10-22 06:40:00,34.4,32.3,30.05,North,355,0.0,0.0,92,0.00,,,0.00,Wunderground v.1.15,2013-10-22 10:40:00,
2013-10-22 06:50:00,34.1,32.0,30.05,North,355,0.0,0.0,92,0.00,,,0.00,Wunderground v.1.15,2013-10-22 10:50:00,
2013-10-22 07:00:00,33.8,31.7,30.05,North,355,0.0,0.0,92,0.00,,,0.00,Wunderground v.1.15,2013-10-22 11:00:00,
2013-10-22 07:10:00,33.7,31.9,30.05,North,355,0.0,0.0,93,0.00,,,0.00,Wunderground v.1.15,2013-10-22 11:10:00,
2013-10-22 07:20:00,33.8,32.0,30.05,North,355,0.0,0.0,93,0.00,,,0.00,Wunderground v.1.15,2013-10-22 11:20:00,
2013-10-22 07:30:00,33.8,32.0,30.05,North,355,0.0,0.0,93,0.00,,,0.00,Wunderground v.1.15,2013-10-22 11:30:00,
2013-10-22 07:40:00,33.9,32.1,30.05,North,355,0.0,0.0,93,0.00,,,0.00,Wunderground v.1.15,2013-10-22 11:40:00,
2013-10-22 07:50:00,33.9,32.1,30.05,North,355,0.0,0.0,93,0.00,,,0.00,Wunderground v.1.15,2013-10-22 11:50:00,
2013-10-22 08:00:00,33.9,31.8,30.05,North,355,0.0,0.0,92,0.00,,,0.00,Wunderground v.1.15,2013-10-22 12:00:00,
2013-10-22 08:10:00,33.9,31.8,30.05,North,355,0.0,0.0,92,0.00,,,0.00,Wunderground v.1.15,2013-10-22 12:10:00,
2013-10-22 08:20:00,34.0,31.9,30.05,North,355,0.0,0.0,92,0.00,,,0.00,Wunderground v.1.15,2013-10-22 12:20:00,
2013-10-22 08:29:00,33.8,31.7,30.05,North,355,0.0,0.0,92,0.00,,,0.00,Wunderground v.1.15,2013-10-22 12:29:00,
2013-10-22 08:40:00,33.7,31.9,30.05,North,355,0.0,0.0,93,0.00,,,0.00,Wunderground v.1.15,2013-10-22 12:40:00,
2013-10-22 08:50:00,33.9,32.1,30.05,North,355,0.0,0.0,93,0.00,,,0.00,Wunderground v.1.15,2013-10-22 12:50:00,
2013-10-22 09:00:00,34.1,32.3,30.06,North,355,0.0,0.0,93,0.00,,,0.00,Wunderground v.1.15,2013-10-22 13:00:00,
2013-10-22 09:09:00,34.6,33.1,30.05,North,355,0.0,0.0,94,0.00,,,0.00,Wunderground v.1.15,2013-10-22 13:09:00,
2013-10-22 09:20:00,35.1,33.5,30.05,North,355,0.0,0.0,94,0.00,,,0.00,Wunderground v.1.15,2013-10-22 13:20:00,
2013-10-22 09:30:00,36.4,34.8,30.06,North,355,0.0,0.0,94,0.00,,,0.00,Wunderground v.1.15,2013-10-22 13:30:00,
2013-10-22 09:40:00,37.4,35.3,30.06,North,355,0.0,0.0,92,0.00,,,0.00,Wunderground v.1.15,2013-10-22 13:40:00,
2013-10-22 09:50:00,38.6,35.6,30.06,North,355,0.0,0.0,89,0.00,,,0.00,Wunderground v.1.15,2013-10-22 13:50:00,
2013-10-22 10:00:00,39.8,35.7,30.06,North,355,1.0,1.0,85,0.00,,,0.00,Wunderground v.1.15,2013-10-22 14:00:00,
2013-10-22 10:10:00,41.2,36.1,30.06,North,360,0.0,0.0,82,0.00,,,0.00,Wunderground v.1.15,2013-10-22 14:10:00,
2013-10-22 10:20:00,43.0,36.9,30.05,SE,125,1.0,1.0,79,0.00,,,0.00,Wunderground v.1.15,2013-10-22 14:20:00,
2013-10-22 10:30:00,44.5,36.4,30.05,SSW,202,1.0,2.0,73,0.00,,,0.00,Wunderground v.1.15,2013-10-22 14:30:00,
2013-10-22 10:40:00,46.2,37.0,30.05,South,171,0.0,2.0,70,0.00,,,0.00,Wunderground v.1.15,2013-10-22 14:40:00,
2013-10-22 10:50:00,46.6,36.6,30.05,SSW,194,1.0,2.0,68,0.00,,,0.00,Wunderground v.1.15,2013-10-22 14:50:00,
2013-10-22 11:00:00,46.5,36.1,30.04,South,178,2.0,2.0,67,0.00,,,0.00,Wunderground v.1.15,2013-10-22 15:00:00,
2013-10-22 11:10:00,47.2,36.8,30.04,SW,222,1.0,3.0,67,0.00,,,0.00,Wunderground v.1.15,2013-10-22 15:10:00,
2013-10-22 11:19:00,47.4,36.2,30.03,South,172,1.0,1.0,65,0.00,,,0.00,Wunderground v.1.15,2013-10-22 15:19:00,
2013-10-22 11:30:00,47.6,35.2,30.03,South,175,1.0,2.0,62,0.00,,,0.00,Wunderground v.1.15,2013-10-22 15:30:00,
2013-10-22 11:40:00,48.2,35.0,30.03,SSW,200,1.0,1.0,60,0.00,,,0.00,Wunderground v.1.15,2013-10-22 15:40:00,
2013-10-22 11:50:00,49.2,33.7,30.02,SSW,192,1.0,1.0,55,0.00,,,0.00,Wunderground v.1.15,2013-10-22 15:50:00,
2013-10-22 12:00:00,49.5,32.1,30.02,SSW,200,2.0,2.0,51,0.00,,,0.00,Wunderground v.1.15,2013-10-22 16:00:00,
2013-10-22 12:10:00,50.1,32.2,30.02,WNW,300,1.0,3.0,50,0.00,,,0.00,Wunderground v.1.15,2013-10-22 16:10:00,
2013-10-22 12:20:00,51.2,32.7,30.01,ESE,120,1.0,1.0,49,0.00,,,0.00,Wunderground v.1.15,2013-10-22 16:20:00,
2013-10-22 12:30:00,51.4,32.3,30.00,South,186,2.0,2.0,48,0.00,,,0.00,Wunderground v.1.15,2013-10-22 16:30:00,
2013-10-22 12:39:00,51.5,30.3,30.00,South,177,2.0,2.0,44,0.00,,,0.00,Wunderground v.1.15,2013-10-22 16:39:00,
2013-10-22 12:50:00,51.4,30.7,30.00,ESE,105,1.0,1.0,45,0.00,,,0.00,Wunderground v.1.15,2013-10-22 16:50:00,
2013-10-22 13:00:00,51.9,31.7,30.00,ESE,107,1.0,1.0,46,0.00,,,0.00,Wunderground v.1.15,2013-10-22 17:00:00,
2013-10-22 13:10:00,51.8,30.0,29.99,SSE,162,1.0,1.0,43,0.00,,,0.00,Wunderground v.1.15,2013-10-22 17:10:00,
2013-10-22 13:20:00,51.9,31.2,29.99,WSW,238,0.0,4.0,45,0.00,,,0.00,Wunderground v.1.15,2013-10-22 17:20:00,
2013-10-22 13:30:00,51.7,31.6,29.98,WSW,246,3.0,3.0,46,0.00,,,0.00,Wunderground v.1.15,2013-10-22 17:30:00,
2013-10-22 13:40:00,52.2,31.5,29.97,SSW,209,2.0,2.0,45,0.00,,,0.00,Wunderground v.1.15,2013-10-22 17:40:00,
2013-10-22 13:50:00,53.1,32.8,29.96,West,263,1.0,2.0,46,0.00,,,0.00,Wunderground v.1.15,2013-10-22 17:50:00,
2013-10-22 14:00:00,53.2,31.3,29.96,SSW,208,2.0,2.0,43,0.00,,,0.00,Wunderground v.1.15,2013-10-22 18:00:00,
2013-10-22 14:10:00,53.6,32.8,29.95,NE,53,0.0,0.0,45,0.00,,,0.00,Wunderground v.1.15,2013-10-22 18:10:00,
2013-10-22 14:20:00,53.3,32.5,29.94,South,191,1.0,1.0,45,0.00,,,0.00,Wunderground v.1.15,2013-10-22 18:20:00,
2013-10-22 14:30:00,53.2,33.5,29.94,South,173,1.0,2.0,47,0.00,,,0.00,Wunderground v.1.15,2013-10-22 18:30:00,
2013-10-22 14:40:00,53.3,33.0,29.93,SSW,208,1.0,1.0,46,0.00,,,0.00,Wunderground v.1.15,2013-10-22 18:40:00,
2013-10-22 14:49:00,53.3,33.0,29.93,SW,224,2.0,3.0,46,0.00,,,0.00,Wunderground v.1.15,2013-10-22 18:49:00,
2013-10-22 15:00:00,52.6,32.9,29.93,SSE,166,3.0,5.0,47,0.00,,,0.00,Wunderground v.1.15,2013-10-22 19:00:00,
2013-10-22 15:10:00,52.4,33.8,29.92,South,186,3.0,3.0,49,0.00,,,0.00,Wunderground v.1.15,2013-10-22 19:10:00,
2013-10-22 15:20:00,52.2,33.6,29.91,SSE,163,3.0,3.0,49,0.00,,,0.00,Wunderground v.1.15,2013-10-22 19:20:00,
2013-10-22 15:29:00,52.1,33.5,29.91,South,184,2.0,2.0,49,0.00,,,0.00,Wunderground v.1.15,2013-10-22 19:29:00,
2013-10-22 15:40:00,52.0,34.4,29.91,SSW,193,1.0,2.0,51,0.00,,,0.00,Wunderground v.1.15,2013-10-22 19:40:00,
2013-10-22 15:50:00,52.1,34.5,29.91,South,173,1.0,1.0,51,0.00,,,0.00,Wunderground v.1.15,2013-10-22 19:50:00,
2013-10-22 16:00:00,52.4,34.8,29.91,South,178,2.0,2.0,51,0.00,,,0.00,Wunderground v.1.15,2013-10-22 20:00:00,
2013-10-22 16:10:00,52.5,33.9,29.90,SSW,204,2.0,2.0,49,0.00,,,0.00,Wunderground v.1.15,2013-10-22 20:10:00,
2013-10-22 16:20:00,52.6,35.0,29.90,South,184,2.0,2.0,51,0.00,,,0.00,Wunderground v.1.15,2013-10-22 20:20:00,
2013-10-22 16:30:00,52.5,34.4,29.90,SSW,192,2.0,2.0,50,0.00,,,0.00,Wunderground v.1.15,2013-10-22 20:30:00,
2013-10-22 16:40:00,52.4,34.8,29.89,South,188,2.0,2.0,51,0.00,,,0.00,Wunderground v.1.15,2013-10-22 20:40:00,
2013-10-22 16:49:00,52.3,35.2,29.89,South,178,1.0,1.0,52,0.00,,,0.00,Wunderground v.1.15,2013-10-22 20:49:00,
2013-10-22 17:00:00,52.4,36.2,29.89,South,178,1.0,1.0,54,0.00,,,0.00,Wunderground v.1.15,2013-10-22 21:00:00,
2013-10-22 17:10:00,52.3,35.7,29.89,South,178,1.0,2.0,53,0.00,,,0.00,Wunderground v.1.15,2013-10-22 21:10:00,
2013-10-22 17:20:00,52.1,35.0,29.88,South,169,1.0,2.0,52,0.00,,,0.00,Wunderground v.1.15,2013-10-22 21:20:00,
2013-10-22 17:29:00,51.7,34.6,29.87,South,186,2.0,2.0,52,0.00,,,0.00,Wunderground v.1.15,2013-10-22 21:29:00,
2013-10-22 17:39:00,51.6,35.5,29.87,South,186,0.0,0.0,54,0.00,,,0.00,Wunderground v.1.15,2013-10-22 21:39:00,
2013-10-22 17:50:00,51.9,38.0,29.88,South,186,0.0,0.0,59,0.00,,,0.00,Wunderground v.1.15,2013-10-22 21:50:00,
2013-10-22 18:00:00,52.0,38.5,29.87,South,186,0.0,0.0,60,0.00,,,0.00,Wunderground v.1.15,2013-10-22 22:00:00,
2013-10-22 18:10:00,51.4,38.0,29.86,South,186,0.0,0.0,60,0.00,,,0.00,Wunderground v.1.15,2013-10-22 22:10:00,
2013-10-22 18:20:00,51.3,40.7,29.86,South,186,0.0,0.0,67,0.00,,,0.00,Wunderground v.1.15,2013-10-22 22:20:00,
2013-10-22 18:30:00,51.3,40.7,29.85,South,186,0.0,0.0,67,0.00,,,0.00,Wunderground v.1.15,2013-10-22 22:30:00,
2013-10-22 18:40:00,50.4,41.7,29.85,WSW,253,0.0,2.0,72,0.00,,,0.00,Wunderground v.1.15,2013-10-22 22:40:00,
2013-10-22 18:50:00,50.0,42.0,29.84,West,281,0.0,0.0,74,0.00,,,0.00,Wunderground v.1.15,2013-10-22 22:50:00,
2013-10-22 19:00:00,49.8,41.8,29.85,West,281,0.0,0.0,74,0.00,,,0.00,Wunderground v.1.15,2013-10-22 23:00:00,
2013-10-22 19:10:00,49.9,42.3,29.85,West,281,0.0,0.0,75,0.00,,,0.00,Wunderground v.1.15,2013-10-22 23:10:00,
2013-10-22 19:20:00,49.7,42.4,29.84,West,281,0.0,0.0,76,0.00,,,0.00,Wunderground v.1.15,2013-10-22 23:20:00,
2013-10-22 19:29:00,49.5,42.9,29.84,West,281,0.0,0.0,78,0.00,,,0.00,Wunderground v.1.15,2013-10-22 23:29:00,
2013-10-22 19:40:00,49.4,42.1,29.85,West,281,0.0,0.0,76,0.00,,,0.00,Wunderground v.1.15,2013-10-22 23:40:00,
2013-10-22 19:50:00,49.6,42.3,29.86,West,281,0.0,0.0,76,0.00,,,0.00,Wunderground v.1.15,2013-10-22 23:50:00,
2013-10-22 20:00:00,49.5,43.3,29.86,West,281,0.0,1.0,79,0.00,,,0.00,Wunderground v.1.15,2013-10-23 00:00:00,
2013-10-22 20:10:00,49.3,43.7,29.85,West,281,0.0,1.0,81,0.00,,,0.00,Wunderground v.1.15,2013-10-23 00:10:00,
2013-10-22 20:20:00,49.2,43.9,29.85,WNW,282,0.0,0.0,82,0.00,,,0.00,Wunderground v.1.15,2013-10-23 00:20:00,
2013-10-22 20:30:00,48.6,44.0,29.85,West,281,0.0,0.0,84,0.00,,,0.00,Wunderground v.1.15,2013-10-23 00:30:00,
2013-10-22 20:40:00,48.4,44.4,29.86,West,281,0.0,0.0,86,0.00,,,0.00,Wunderground v.1.15,2013-10-23 00:40:00,
2013-10-22 20:50:00,48.6,44.3,29.85,West,281,0.0,0.0,85,0.00,,,0.00,Wunderground v.1.15,2013-10-23 00:50:00,
2013-10-22 21:00:00,48.3,43.7,29.85,West,281,0.0,1.0,84,0.00,,,0.00,Wunderground v.1.15,2013-10-23 01:00:00,
2013-10-22 21:10:00,48.0,43.4,29.85,WNW,282,1.0,1.0,84,0.00,,,0.00,Wunderground v.1.15,2013-10-23 01:10:00,
2013-10-22 21:19:00,48.1,43.5,29.85,WNW,282,0.0,0.0,84,0.00,,,0.00,Wunderground v.1.15,2013-10-23 01:19:00,
2013-10-22 21:30:00,48.1,43.8,29.84,WNW,282,0.0,1.0,85,0.00,,,0.00,Wunderground v.1.15,2013-10-23 01:30:00,
2013-10-22 21:40:00,48.1,43.5,29.84,WNW,283,1.0,1.0,84,0.00,,,0.00,Wunderground v.1.15,2013-10-23 01:40:00,
2013-10-22 21:50:00,48.1,43.2,29.83,WNW,283,0.0,1.0,83,0.00,,,0.00,Wunderground v.1.15,2013-10-23 01:50:00,
2013-10-22 22:00:00,48.2,43.3,29.83,WNW,283,0.0,0.0,83,0.00,,,0.00,Wunderground v.1.15,2013-10-23 02:00:00,
2013-10-22 22:10:00,48.4,43.5,29.83,WNW,283,0.0,0.0,83,0.00,,,0.00,Wunderground v.1.15,2013-10-23 02:10:00,
2013-10-22 22:20:00,48.3,43.7,29.82,WNW,283,0.0,0.0,84,0.00,,,0.00,Wunderground v.1.15,2013-10-23 02:20:00,
2013-10-22 22:30:00,47.9,43.6,29.83,WNW,283,0.0,0.0,85,0.00,,,0.00,Wunderground v.1.15,2013-10-23 02:30:00,
2013-10-22 22:39:00,47.7,44.0,29.83,WNW,283,0.0,0.0,87,0.00,,,0.00,Wunderground v.1.15,2013-10-23 02:39:00,
2013-10-22 22:50:00,47.4,44.3,29.83,WNW,283,0.0,0.0,89,0.00,,,0.00,Wunderground v.1.15,2013-10-23 02:50:00,
2013-10-22 23:00:00,47.0,43.9,29.82,South,190,0.0,0.0,89,0.00,,,0.00,Wunderground v.1.15,2013-10-23 03:00:00,
2013-10-22 23:10:00,46.6,44.1,29.82,South,190,0.0,0.0,91,0.00,,,0.01,Wunderground v.1.15,2013-10-23 03:10:00,
2013-10-22 23:20:00,46.2,43.7,29.81,South,190,0.0,0.0,91,0.00,,,0.01,Wunderground v.1.15,2013-10-23 03:20:00,
2013-10-22 23:30:00,46.3,44.1,29.81,South,189,0.0,0.0,92,0.00,,,0.01,Wunderground v.1.15,2013-10-23 03:30:00,
2013-10-22 23:40:00,46.7,44.8,29.80,South,190,0.0,0.0,93,0.00,,,0.01,Wunderground v.1.15,2013-10-23 03:40:00,
2013-10-22 23:50:00,47.2,45.0,29.80,South,190,0.0,0.0,92,0.00,,,0.01,Wunderground v.1.15,2013-10-23 03:50:00,